Airfield :
LOGIN :

Register | Disclaimer

   EN    FR    IT 

 










Legend :    VFR   Marginal VFR   IFR   Intensive IFR   Very Intensive IFR
Visi :
Ceiling :
>= 8 km
>= 3000ft
5 to 8 km
1000 to 3000 ft
1500m to 5 km
500 to 1000 ft
800 to 1500m
200 to 500 ft
< 800m
< 200 ft
Symbols :   Thunderstorms  Fog  Heavy snow  Heavy precipitations  Wind > 20 kt
SIGMETs :     Misc.  Thunderstorms  Icing  Turbulence  Mountain Waves  Volcanic Ashes







- Airport Elevation : 74 ft
- IATA code : MRS
- Download approach charts


LFML - Marseille / Marignane

CURRENT METAR :
  • 201300Z AUTO 33016KT CAVOK 23/11 Q1008 TEMPO SCT040TCU BECMG 30015G25KT

EXPIRED METARs :
  • 201230Z AUTO 32015KT CAVOK 22/10 Q1008 TEMPO SCT040TCU BECMG 30015G25KT
  • 201200Z AUTO 32016KT 9999 BKN050 BKN060 OVC110 21/11 Q1008 TEMPO SCT040TCU BECMG 30015G25KT
  • 201130Z AUTO 32016KT 9999 BKN049 BKN060 BKN110 21/10 Q1008 TEMPO SCT040TCU BECMG 30015G25KT
  • 201100Z AUTO 32015KT 9999 OVC047 20/11 Q1008 TEMPO SCT040TCU BECMG 30015G25KT
  • 201030Z AUTO 32016KT 9999 BKN042 OVC048 20/11 Q1008 TEMPO SCT040TCU BECMG 30015G25KT

TAF TAF LFML
Valid from the 20 at 09:00 until the 21 at 15:00 UTC


200800Z 2009/2115 30015G25KT 9999 FEW040 BKN080 TX22/2014Z TN14/2103Z
PROB40
TEMPO 2011/2016 SCT040TCU
BECMG 2016/2019 CAVOK
BECMG 2106/2109 32020G35KT
ATIS : +33 4 42 31 15 15
No reported NOTAMs for that airfield.



MET'MAP, your aeronautical weather chart ! - Copyright ORBIFLY December 2007 - Disclaimer

ORBIFLY MET'MAP TEAM :

Programming & Development : Alexandra Zaïnal
Concept & Development : Baudouin d'Aumeries
Co-Development & Prog : Marc-Olivier Méhu
Technical & hardware support : Manuel Goepfert

Contact : metmap@orbifly.com




SOURCES & CREDITS :

   NOAA